Time;durP1;ratioP1;P1;durP2;ratioP2;P2;SDS_P1;SDS_P2;PMS_P1;PMS_P2;Temp;Humidity;BMP_temperature;BMP_pressure;BME280_temperature;BME280_humidity;BME280_pressure;Samples;Min_cycle;Max_cycle;Signal;HPM_P1;HPM_P2
2022/12/23 00:00:42;;;;;;;2.05;0.90;;;19.20;58.70;;;;;;4976536;28;20189;-68
2022/12/23 00:03:08;;;;;;;1.30;1.08;;;19.20;58.70;;;;;;4976698;28;20255;-67
2022/12/23 00:05:38;;;;;;;1.27;0.80;;;19.20;58.70;;;;;;4976656;28;20573;-67
2022/12/23 00:08:06;;;;;;;1.58;0.70;;;19.20;58.70;;;;;;4993133;28;20287;-67
2022/12/23 00:10:33;;;;;;;1.23;0.80;;;19.20;58.70;;;;;;4992437;28;20239;-67
2022/12/23 00:15:43;;;;;;;1.95;0.88;;;19.20;58.70;;;;;;4992748;28;20189;-67
2022/12/23 00:18:09;;;;;;;1.20;0.70;;;19.20;58.70;;;;;;4992538;28;20235;-68
2022/12/23 00:20:34;;;;;;;1.67;0.70;;;19.20;58.70;;;;;;4975024;28;20184;-68
2022/12/23 00:23:06;;;;;;;1.48;0.65;;;19.20;58.70;;;;;;4976140;28;20637;-68
2022/12/23 00:25:40;;;;;;;2.17;0.80;;;19.20;58.70;;;;;;4992462;28;20676;-67
2022/12/23 00:28:16;;;;;;;0.85;0.63;;;19.20;58.70;;;;;;4993742;28;20179;-67
2022/12/23 00:30:54;;;;;;;1.52;0.80;;;19.20;58.70;;;;;;4975891;28;20307;-68
2022/12/23 00:33:26;;;;;;;1.17;0.75;;;19.20;58.70;;;;;;4992131;28;20209;-67
2022/12/23 00:35:52;;;;;;;0.70;0.60;;;19.10;58.60;;;;;;4992547;28;20188;-67
2022/12/23 00:44:03;;;;;;;1.10;0.73;;;19.20;58.70;;;;;;4993078;28;20219;-68
2022/12/23 00:46:29;;;;;;;1.38;0.73;;;19.20;58.70;;;;;;4992268;28;20235;-68
2022/12/23 00:51:39;;;;;;;0.95;0.60;;;19.10;58.60;;;;;;4993188;28;20201;-68
2022/12/23 00:54:06;;;;;;;1.08;0.70;;;19.20;58.70;;;;;;4991800;28;20216;-67
2022/12/23 00:56:31;;;;;;;1.05;0.57;;;19.20;58.70;;;;;;4991922;28;20188;-68
2022/12/23 00:58:58;;;;;;;0.77;0.63;;;19.20;58.70;;;;;;4991800;28;20189;-67
2022/12/23 01:06:59;;;;;;;0.85;0.60;;;19.10;58.60;;;;;;4993018;28;20169;-67
2022/12/23 01:09:25;;;;;;;1.02;0.60;;;19.10;58.60;;;;;;4991800;28;20184;-68
2022/12/23 01:11:51;;;;;;;0.93;0.60;;;19.20;58.70;;;;;;4991693;28;20208;-67
2022/12/23 01:14:17;;;;;;;1.40;0.50;;;19.20;58.70;;;;;;4992146;28;20222;-68
2022/12/23 01:16:44;;;;;;;0.77;0.60;;;19.20;58.70;;;;;;4975556;28;20196;-67
2022/12/23 01:19:10;;;;;;;0.63;0.50;;;19.10;58.60;;;;;;4992509;28;20176;-66
2022/12/23 01:21:36;;;;;;;0.55;0.55;;;19.10;58.60;;;;;;4992902;28;20189;-67
2022/12/23 01:24:02;;;;;;;2.15;0.63;;;19.10;58.60;;;;;;4975598;28;20208;-67
2022/12/23 01:26:28;;;;;;;0.50;0.40;;;19.10;58.60;;;;;;4991633;28;20275;-67
2022/12/23 01:28:55;;;;;;;0.70;0.45;;;19.20;58.70;;;;;;4991608;28;20275;-67
2022/12/23 01:31:26;;;;;;;1.65;0.60;;;19.10;58.60;;;;;;4992530;28;20208;-67
2022/12/23 01:33:53;;;;;;;0.40;0.40;;;19.10;58.70;;;;;;4979388;28;20212;-68
2022/12/23 01:36:20;;;;;;;1.13;0.60;;;19.20;58.70;;;;;;4979340;28;20724;-67
2022/12/23 01:38:46;;;;;;;0.68;0.60;;;19.20;58.60;;;;;;4979367;28;20184;-68
2022/12/23 01:44:53;;;;;;;1.90;0.57;;;19.20;58.70;;;;;;4996547;28;20220;-67
2022/12/23 01:47:28;;;;;;;0.90;0.40;;;19.10;58.60;;;;;;4995363;28;20298;-67
2022/12/23 01:50:11;;;;;;;0.55;0.40;;;19.10;58.60;;;;;;4978482;28;20546;-68
2022/12/23 01:52:48;;;;;;;0.50;0.50;;;19.20;58.70;;;;;;4995277;28;20212;-68
2022/12/23 01:55:22;;;;;;;0.43;0.43;;;19.20;58.70;;;;;;4979500;28;20195;-68
2022/12/23 01:57:49;;;;;;;0.77;0.70;;;19.20;58.70;;;;;;4979262;28;20638;-68
2022/12/23 02:05:47;;;;;;;1.08;0.60;;;19.10;58.70;;;;;;4996451;28;20231;-67
2022/12/23 02:11:26;;;;;;;0.85;0.60;;;19.20;58.70;;;;;;4994318;28;20200;-68
2022/12/23 02:17:45;;;;;;;0.45;0.43;;;19.20;58.80;;;;;;4982766;28;20193;-68
2022/12/23 02:20:45;;;;;;;0.75;0.60;;;19.10;58.70;;;;;;4994675;28;20177;-68
2022/12/23 02:23:48;;;;;;;0.88;0.57;;;19.10;58.70;;;;;;4994809;28;20228;-68
2022/12/23 02:26:57;;;;;;;1.30;0.57;;;19.20;58.80;;;;;;4994873;28;20196;-67
2022/12/23 02:30:03;;;;;;;1.52;0.40;;;19.10;58.70;;;;;;4978170;28;20204;-67
2022/12/23 02:32:57;;;;;;;0.50;0.40;;;19.20;58.80;;;;;;4994513;28;20220;-68
2022/12/23 02:35:38;;;;;;;0.45;0.43;;;19.10;58.70;;;;;;4994548;28;20193;-68
2022/12/23 02:38:26;;;;;;;0.50;0.50;;;19.10;58.70;;;;;;4978516;28;20261;-68
2022/12/23 02:41:23;;;;;;;1.25;0.43;;;19.10;58.70;;;;;;4995478;28;20256;-68
2022/12/23 02:44:01;;;;;;;0.77;0.60;;;19.10;58.70;;;;;;4977172;28;20220;-68
2022/12/23 02:47:05;;;;;;;0.88;0.40;;;19.10;58.80;;;;;;4994494;28;20188;-66
2022/12/23 02:49:37;;;;;;;0.95;0.43;;;19.10;58.80;;;;;;4989804;28;20200;-68
2022/12/23 02:52:10;;;;;;;0.52;0.40;;;19.10;58.80;;;;;;4994235;28;20251;-68
2022/12/23 02:54:45;;;;;;;0.50;0.50;;;19.10;58.80;;;;;;4994394;28;20219;-68
2022/12/23 02:57:16;;;;;;;0.68;0.47;;;19.20;58.90;;;;;;4994112;28;20177;-67
2022/12/23 02:59:50;;;;;;;0.40;0.40;;;19.20;58.90;;;;;;4993548;28;20180;-68
2022/12/23 03:02:16;;;;;;;0.50;0.40;;;19.20;58.90;;;;;;4994125;28;20188;-67
2022/12/23 03:04:41;;;;;;;0.52;0.40;;;19.20;59.00;;;;;;4994020;28;20185;-68
2022/12/23 03:07:17;;;;;;;0.93;0.50;;;19.10;58.80;;;;;;4993975;28;20193;-68
2022/12/23 03:10:05;;;;;;;0.30;0.30;;;19.10;58.80;;;;;;4993431;28;20660;-67
2022/12/23 03:12:57;;;;;;;1.30;0.47;;;19.10;58.80;;;;;;4994122;28;20204;-68
2022/12/23 03:15:49;;;;;;;0.30;0.30;;;19.10;58.80;;;;;;4995169;28;20231;-68
2022/12/23 03:18:59;;;;;;;0.40;0.40;;;19.10;58.90;;;;;;4993702;28;20224;-69
2022/12/23 03:21:51;;;;;;;0.88;0.50;;;19.10;58.90;;;;;;4976785;28;20189;-68
2022/12/23 03:24:40;;;;;;;0.40;0.40;;;19.10;58.90;;;;;;4993641;28;20211;-67
2022/12/23 03:27:17;;;;;;;0.40;0.38;;;19.10;58.90;;;;;;4993501;28;20197;-67
2022/12/23 03:30:03;;;;;;;0.30;0.30;;;19.10;58.90;;;;;;4994516;28;20566;-68
2022/12/23 03:32:38;;;;;;;0.35;0.28;;;19.10;58.90;;;;;;4977230;28;20244;-67
2022/12/23 03:35:10;;;;;;;0.55;0.35;;;19.10;59.00;;;;;;4993724;28;20185;-67
2022/12/23 03:37:42;;;;;;;0.70;0.50;;;19.20;59.00;;;;;;4977427;28;20204;-68
2022/12/23 03:40:17;;;;;;;0.38;0.38;;;19.10;58.90;;;;;;4973553;28;20252;-68
2022/12/23 03:42:49;;;;;;;0.40;0.40;;;19.10;58.90;;;;;;4958099;28;20209;-68
2022/12/23 03:45:30;;;;;;;0.40;0.30;;;19.10;59.00;;;;;;4974923;28;20166;-67
2022/12/23 03:48:03;;;;;;;0.30;0.30;;;19.10;59.00;;;;;;4973974;28;20331;-67
2022/12/23 03:50:30;;;;;;;0.30;0.20;;;19.10;59.00;;;;;;4973177;28;20186;-67
2022/12/23 03:53:05;;;;;;;0.73;0.40;;;19.10;59.00;;;;;;4957840;28;20349;-68
2022/12/23 03:55:42;;;;;;;0.40;0.35;;;19.10;59.00;;;;;;4973702;28;20185;-67
2022/12/23 03:58:44;;;;;;;0.32;0.30;;;19.10;59.00;;;;;;4990631;28;20237;-67
2022/12/23 04:01:55;;;;;;;0.30;0.30;;;19.10;59.00;;;;;;4985790;28;20191;-67
2022/12/23 04:04:33;;;;;;;0.20;0.20;;;19.10;59.00;;;;;;4976576;28;20215;-67
2022/12/23 04:09:57;;;;;;;0.30;0.30;;;19.10;59.00;;;;;;5218990;23;20237;-67
2022/12/23 04:12:26;;;;;;;0.40;0.40;;;19.10;59.10;;;;;;4934650;29;20218;-67
2022/12/23 04:14:52;;;;;;;0.60;0.60;;;19.10;59.00;;;;;;4953815;29;20275;-67
2022/12/23 04:17:20;;;;;;;0.30;0.30;;;19.10;59.00;;;;;;4937922;29;20632;-67
2022/12/23 04:19:46;;;;;;;1.55;0.30;;;19.10;59.10;;;;;;4950403;29;20203;-67
2022/12/23 04:22:14;;;;;;;0.32;0.32;;;19.10;59.10;;;;;;4949849;29;20221;-67
2022/12/23 04:24:41;;;;;;;0.52;0.40;;;19.10;59.00;;;;;;4937586;29;20191;-67
2022/12/23 04:27:10;;;;;;;0.30;0.30;;;19.10;59.10;;;;;;4966736;28;20175;-67
2022/12/23 04:29:37;;;;;;;0.90;0.50;;;19.10;59.10;;;;;;4952832;29;20214;-67
2022/12/23 04:32:03;;;;;;;1.13;0.40;;;19.10;59.10;;;;;;4953502;28;20245;-67
2022/12/23 04:34:29;;;;;;;0.30;0.30;;;19.10;59.70;;;;;;4937453;29;20191;-67
2022/12/23 04:36:55;;;;;;;0.28;0.28;;;19.10;59.10;;;;;;4969408;28;20237;-67
2022/12/23 04:39:21;;;;;;;0.47;0.40;;;19.10;59.10;;;;;;4950541;28;20218;-67
2022/12/23 04:41:47;;;;;;;0.40;0.40;;;19.10;59.10;;;;;;4965978;28;20243;-67
2022/12/23 04:44:13;;;;;;;0.50;0.30;;;19.10;59.20;;;;;;4950098;29;20550;-68
2022/12/23 04:46:39;;;;;;;0.30;0.30;;;19.10;59.10;;;;;;4937148;29;20191;-67
2022/12/23 04:49:05;;;;;;;0.20;0.20;;;19.10;59.10;;;;;;4937302;29;20238;-67
2022/12/23 04:51:31;;;;;;;0.73;0.40;;;19.10;59.10;;;;;;4954288;28;20206;-67
2022/12/23 04:53:57;;;;;;;0.40;0.40;;;19.10;59.10;;;;;;4953281;29;20240;-68
2022/12/23 04:56:23;;;;;;;0.28;0.28;;;19.10;59.10;;;;;;4927047;29;20230;-67
2022/12/23 04:58:48;;;;;;;0.63;0.35;;;19.10;59.20;;;;;;4953064;28;20704;-67
2022/12/23 05:01:14;;;;;;;0.45;0.40;;;19.10;59.20;;;;;;4954251;29;20362;-67
2022/12/23 05:03:40;;;;;;;0.30;0.28;;;19.10;59.20;;;;;;4952902;29;20264;-67
2022/12/23 05:06:07;;;;;;;0.30;0.30;;;19.10;59.20;;;;;;4953841;28;20274;-67
2022/12/23 05:08:33;;;;;;;1.45;0.50;;;19.10;59.20;;;;;;4935746;29;20233;-67
2022/12/23 05:10:59;;;;;;;0.35;0.30;;;19.10;59.20;;;;;;4952801;29;20264;-67
2022/12/23 05:13:25;;;;;;;0.63;0.40;;;19.10;59.20;;;;;;4961937;28;20221;-68
2022/12/23 05:15:53;;;;;;;0.40;0.40;;;19.10;59.20;;;;;;4959685;28;20186;-68
2022/12/23 05:18:20;;;;;;;0.28;0.28;;;19.10;59.20;;;;;;4960401;28;20585;-67
2022/12/23 05:20:47;;;;;;;0.40;0.40;;;19.10;59.20;;;;;;4952864;29;20186;-68
2022/12/23 05:23:12;;;;;;;0.30;0.30;;;19.10;59.20;;;;;;4953977;29;20325;-68
2022/12/23 05:25:39;;;;;;;2.45;0.50;;;19.10;59.20;;;;;;4953061;28;20277;-68
2022/12/23 05:28:06;;;;;;;0.43;0.35;;;19.10;59.20;;;;;;4936511;29;20186;-67
2022/12/23 05:30:33;;;;;;;0.40;0.40;;;19.10;59.20;;;;;;4951964;28;20194;-67
2022/12/23 05:32:58;;;;;;;0.40;0.40;;;19.10;59.30;;;;;;4936757;29;20650;-67
2022/12/23 05:35:26;;;;;;;0.90;0.57;;;19.10;59.20;;;;;;4968800;28;20187;-67
2022/12/23 05:37:52;;;;;;;0.32;0.28;;;19.10;59.20;;;;;;4960521;28;20187;-67
2022/12/23 05:40:19;;;;;;;0.70;0.35;;;19.10;59.30;;;;;;4949715;29;20190;-67
2022/12/23 05:42:44;;;;;;;0.25;0.25;;;19.10;59.30;;;;;;4952542;29;20194;-67
2022/12/23 05:45:10;;;;;;;0.40;0.40;;;19.10;59.20;;;;;;4960775;28;20201;-67
2022/12/23 05:47:36;;;;;;;0.80;0.28;;;19.10;59.30;;;;;;4952159;28;20195;-67
2022/12/23 05:50:03;;;;;;;0.28;0.28;;;19.10;59.30;;;;;;4953877;28;20217;-67
2022/12/23 05:52:29;;;;;;;1.05;0.30;;;19.10;59.20;;;;;;4952728;29;20681;-67
2022/12/23 05:54:55;;;;;;;0.30;0.30;;;19.10;59.30;;;;;;4952659;29;20187;-68
2022/12/23 05:57:20;;;;;;;0.25;0.25;;;19.10;59.30;;;;;;4961738;28;20210;-67
2022/12/23 05:59:46;;;;;;;0.40;0.40;;;19.10;59.30;;;;;;4952283;29;20195;-68
2022/12/23 06:02:12;;;;;;;0.30;0.30;;;19.10;59.40;;;;;;4960856;28;20720;-67
2022/12/23 06:04:37;;;;;;;0.30;0.30;;;19.10;59.30;;;;;;4955184;28;20186;-67
2022/12/23 06:07:03;;;;;;;0.30;0.30;;;19.10;59.30;;;;;;4958776;28;20190;-67
2022/12/23 06:09:29;;;;;;;0.20;0.20;;;19.10;59.40;;;;;;4944017;28;20305;-67
2022/12/23 06:11:55;;;;;;;0.30;0.30;;;19.10;59.30;;;;;;4936667;29;20215;-67
2022/12/23 06:14:20;;;;;;;0.30;0.28;;;19.10;59.40;;;;;;4952611;28;20190;-67
2022/12/23 06:16:46;;;;;;;0.43;0.30;;;19.10;59.40;;;;;;4952400;28;20191;-67
2022/12/23 06:19:12;;;;;;;0.35;0.30;;;19.10;59.40;;;;;;4954290;28;20206;-68
2022/12/23 06:21:37;;;;;;;0.50;0.30;;;19.10;59.40;;;;;;4955985;29;20217;-67
2022/12/23 06:24:04;;;;;;;0.38;0.38;;;19.10;59.40;;;;;;4955996;28;20225;-67
2022/12/23 06:26:29;;;;;;;0.30;0.30;;;19.10;59.40;;;;;;4939897;28;20627;-67
2022/12/23 06:28:55;;;;;;;0.40;0.40;;;19.10;59.40;;;;;;4956789;28;20210;-68
2022/12/23 06:31:21;;;;;;;0.30;0.30;;;19.10;59.40;;;;;;4939070;29;20225;-68
2022/12/23 06:33:46;;;;;;;0.70;0.40;;;19.10;59.40;;;;;;4959969;28;20185;-68
2022/12/23 06:36:12;;;;;;;0.30;0.30;;;19.10;59.40;;;;;;4951633;29;20186;-67
2022/12/23 06:38:38;;;;;;;0.30;0.30;;;19.10;59.40;;;;;;4955358;29;20214;-68
2022/12/23 06:41:04;;;;;;;0.35;0.35;;;19.10;59.40;;;;;;4936050;29;20654;-68
2022/12/23 06:43:30;;;;;;;0.52;0.32;;;19.10;59.40;;;;;;4963303;28;20202;-67
2022/12/23 06:45:56;;;;;;;0.20;0.20;;;19.10;59.40;;;;;;4961191;28;20213;-67
2022/12/23 06:48:22;;;;;;;0.30;0.30;;;19.10;59.40;;;;;;4957585;28;20224;-67
2022/12/23 06:50:47;;;;;;;0.40;0.40;;;19.10;59.40;;;;;;4939515;29;20239;-67
2022/12/23 06:53:13;;;;;;;0.32;0.30;;;19.10;59.40;;;;;;4955226;28;20280;-67
2022/12/23 06:55:39;;;;;;;1.02;0.35;;;19.10;59.40;;;;;;4956349;28;20198;-67
2022/12/23 06:58:05;;;;;;;0.40;0.40;;;19.10;59.40;;;;;;4938956;29;20194;-67
2022/12/23 07:00:31;;;;;;;1.15;0.50;;;19.10;59.40;;;;;;4955484;28;20194;-68
2022/12/23 07:02:56;;;;;;;0.30;0.30;;;19.10;60.00;;;;;;4955113;28;20202;-67
2022/12/23 07:05:22;;;;;;;0.30;0.30;;;19.10;59.40;;;;;;4952596;28;20202;-68
2022/12/23 07:07:48;;;;;;;0.50;0.50;;;19.10;59.40;;;;;;4938893;29;20186;-68
2022/12/23 07:10:13;;;;;;;0.60;0.50;;;19.10;59.50;;;;;;4971076;28;20212;-68
2022/12/23 07:12:39;;;;;;;0.30;0.30;;;19.10;60.00;;;;;;4938844;29;20257;-68
2022/12/23 07:15:07;;;;;;;0.57;0.50;;;19.10;59.50;;;;;;4945470;28;20188;-68
2022/12/23 07:17:32;;;;;;;0.30;0.30;;;19.10;59.50;;;;;;4949886;28;20196;-67
2022/12/23 07:19:58;;;;;;;0.40;0.40;;;19.10;59.50;;;;;;4955992;28;20202;-68
2022/12/23 07:22:24;;;;;;;0.63;0.40;;;19.10;59.50;;;;;;4963086;28;20201;-68
2022/12/23 07:24:50;;;;;;;0.77;0.47;;;19.10;59.50;;;;;;4967215;28;20189;-68
2022/12/23 07:27:15;;;;;;;1.35;0.40;;;19.10;59.50;;;;;;4972131;28;20569;-69
2022/12/23 07:29:41;;;;;;;0.28;0.28;;;19.10;59.50;;;;;;4938145;29;20214;-68
2022/12/23 07:32:08;;;;;;;0.45;0.45;;;19.10;59.50;;;;;;4954819;29;20217;-68
2022/12/23 07:34:34;;;;;;;0.50;0.50;;;19.10;59.50;;;;;;4966436;28;20194;-68
2022/12/23 07:37:00;;;;;;;0.50;0.50;;;19.00;59.50;;;;;;4973810;28;20239;-68
2022/12/23 07:39:27;;;;;;;0.45;0.45;;;19.10;59.50;;;;;;4949372;28;20266;-68
2022/12/23 07:41:52;;;;;;;0.68;0.68;;;19.10;59.50;;;;;;4971834;28;20206;-68
2022/12/23 07:44:18;;;;;;;0.50;0.50;;;19.00;59.40;;;;;;4954885;28;20217;-68
2022/12/23 07:46:44;;;;;;;0.52;0.52;;;19.10;59.60;;;;;;4949638;28;20187;-68
2022/12/23 07:49:10;;;;;;;1.85;0.55;;;19.10;59.60;;;;;;4950467;29;20673;-68
2022/12/23 07:51:35;;;;;;;0.73;0.60;;;19.10;59.60;;;;;;4954157;28;20213;-68
2022/12/23 07:54:01;;;;;;;0.80;0.77;;;19.10;59.60;;;;;;4952568;28;20703;-69
2022/12/23 07:56:27;;;;;;;0.50;0.43;;;19.10;59.60;;;;;;4956476;28;20191;-69
2022/12/23 07:58:53;;;;;;;0.60;0.60;;;19.10;59.60;;;;;;4943115;29;20219;-69
2022/12/23 08:01:20;;;;;;;0.52;0.50;;;19.00;59.50;;;;;;4968636;28;20194;-68
2022/12/23 08:03:47;;;;;;;0.57;0.47;;;19.10;59.60;;;;;;4973439;28;20193;-68
2022/12/23 08:06:14;;;;;;;1.95;0.70;;;19.10;59.60;;;;;;4957652;28;20182;-68
2022/12/23 08:08:43;;;;;;;1.60;0.50;;;19.10;59.60;;;;;;4973398;28;20264;-69
2022/12/23 08:11:11;;;;;;;1.02;0.43;;;19.10;59.60;;;;;;4957269;28;20217;-69
2022/12/23 08:13:40;;;;;;;0.60;0.50;;;19.10;59.60;;;;;;4974318;28;20196;-68
2022/12/23 08:16:07;;;;;;;0.60;0.60;;;19.10;59.60;;;;;;4957481;28;20280;-68
2022/12/23 08:18:37;;;;;;;0.77;0.55;;;19.10;59.70;;;;;;4970759;28;20212;-69
2022/12/23 08:21:13;;;;;;;0.47;0.43;;;19.10;59.80;;;;;;4968054;28;20232;-69
2022/12/23 08:23:40;;;;;;;1.52;0.70;;;19.10;59.80;;;;;;4941131;28;20185;-69
2022/12/23 08:26:10;;;;;;;0.60;0.60;;;19.10;59.70;;;;;;4973162;28;20185;-68
2022/12/23 08:28:38;;;;;;;0.60;0.52;;;19.10;59.80;;;;;;4948612;28;20209;-68
2022/12/23 08:31:11;;;;;;;0.75;0.75;;;19.10;59.80;;;;;;4958831;28;20217;-69
2022/12/23 08:33:39;;;;;;;1.13;0.60;;;19.10;59.80;;;;;;4973559;28;20189;-69
2022/12/23 08:36:07;;;;;;;1.67;0.63;;;19.10;59.90;;;;;;4958879;28;20318;-69
2022/12/23 08:38:34;;;;;;;0.73;0.60;;;19.10;59.80;;;;;;4971516;28;20212;-69
2022/12/23 08:41:00;;;;;;;1.90;1.10;;;19.10;59.90;;;;;;4973093;28;20276;-69
2022/12/23 08:43:26;;;;;;;0.90;0.80;;;19.00;59.80;;;;;;4974205;28;20674;-69
2022/12/23 08:45:52;;;;;;;1.08;0.70;;;19.00;59.80;;;;;;4950402;28;20184;-69
2022/12/23 08:48:18;;;;;;;1.00;0.80;;;19.10;59.90;;;;;;4956504;28;20635;-68
2022/12/23 08:50:46;;;;;;;0.70;0.70;;;19.10;59.90;;;;;;4972545;28;20194;-69
2022/12/23 08:53:12;;;;;;;1.58;0.90;;;19.10;59.90;;;;;;4963500;28;20193;-68
2022/12/23 08:55:45;;;;;;;0.80;0.70;;;19.10;59.90;;;;;;4969764;28;20277;-69
2022/12/23 08:58:14;;;;;;;1.65;0.90;;;19.10;59.90;;;;;;4943940;28;20205;-69
2022/12/23 09:00:40;;;;;;;1.70;0.95;;;19.10;59.90;;;;;;4972560;28;20202;-68
2022/12/23 09:03:07;;;;;;;0.98;0.57;;;19.10;59.90;;;;;;4956348;28;20188;-68
2022/12/23 09:05:37;;;;;;;1.30;0.85;;;19.10;59.90;;;;;;4972497;28;20224;-69
2022/12/23 09:08:03;;;;;;;1.33;1.05;;;19.10;59.90;;;;;;4959142;28;20188;-68
2022/12/23 09:10:29;;;;;;;1.92;1.00;;;19.10;59.90;;;;;;4969691;28;20189;-69
2022/12/23 09:12:54;;;;;;;2.65;1.10;;;19.00;59.80;;;;;;4947072;28;20205;-68
2022/12/23 09:15:20;;;;;;;1.38;1.02;;;19.00;59.80;;;;;;4945864;28;20595;-69
2022/12/23 09:17:46;;;;;;;1.98;1.30;;;19.10;59.90;;;;;;4952928;28;20182;-68
2022/12/23 09:20:12;;;;;;;0.98;0.88;;;19.10;59.90;;;;;;4977113;28;20201;-68
2022/12/23 09:22:38;;;;;;;2.03;0.85;;;19.10;59.90;;;;;;4963850;28;20264;-68
2022/12/23 09:25:04;;;;;;;1.77;0.90;;;19.10;59.90;;;;;;4973898;28;20190;-69
2022/12/23 09:27:30;;;;;;;1.20;0.70;;;19.00;59.80;;;;;;4944731;29;20191;-69
2022/12/23 09:29:55;;;;;;;1.63;0.98;;;19.00;59.80;;;;;;4941795;29;20255;-69
2022/12/23 09:32:21;;;;;;;1.65;0.98;;;19.10;59.90;;;;;;4966229;28;20280;-69
2022/12/23 09:34:47;;;;;;;1.58;0.90;;;19.00;59.80;;;;;;4964722;28;20193;-69
2022/12/23 09:37:15;;;;;;;1.65;1.00;;;19.10;59.90;;;;;;4948094;28;20190;-69
2022/12/23 09:39:41;;;;;;;1.05;0.70;;;19.00;59.80;;;;;;4958511;28;20220;-69
2022/12/23 09:42:47;;;;;;;1.10;1.00;;;19.00;59.80;;;;;;4952767;29;20217;-69
2022/12/23 09:45:57;;;;;;;3.33;1.25;;;19.10;59.90;;;;;;4940575;29;20222;-69
2022/12/23 09:48:31;;;;;;;1.83;0.90;;;19.10;59.90;;;;;;4940614;28;20225;-69
2022/12/23 09:50:58;;;;;;;1.75;1.00;;;19.10;59.90;;;;;;4971478;28;20220;-69
2022/12/23 09:53:36;;;;;;;1.83;0.90;;;19.00;59.80;;;;;;4984934;28;20186;-69
2022/12/23 09:56:32;;;;;;;2.25;1.13;;;19.00;59.80;;;;;;4967914;28;20217;-68
2022/12/23 10:00:07;;;;;;;2.90;1.10;;;19.10;59.90;;;;;;4967508;28;20243;-68
2022/12/23 10:03:07;;;;;;;1.13;1.00;;;19.00;59.80;;;;;;4957336;28;20197;-69
2022/12/23 10:06:09;;;;;;;1.05;0.95;;;19.00;59.80;;;;;;4965286;28;20201;-69
2022/12/23 10:08:41;;;;;;;1.23;1.05;;;19.10;59.90;;;;;;4951142;28;20249;-69
2022/12/23 10:11:26;;;;;;;1.73;1.20;;;19.10;59.90;;;;;;4972239;28;20304;-69
2022/12/23 10:14:08;;;;;;;1.27;1.08;;;19.10;59.90;;;;;;4937039;29;20192;-69
2022/12/23 10:16:50;;;;;;;2.50;1.08;;;19.10;59.90;;;;;;4957405;28;20241;-69
2022/12/23 10:19:47;;;;;;;1.85;1.10;;;19.10;59.90;;;;;;4962681;28;20210;-69
2022/12/23 10:22:39;;;;;;;1.67;1.20;;;19.10;59.90;;;;;;4967653;28;20213;-68
2022/12/23 10:25:30;;;;;;;2.50;1.10;;;19.10;59.90;;;;;;4949541;29;20202;-69
2022/12/23 10:27:56;;;;;;;2.85;1.05;;;19.10;59.90;;;;;;4937037;28;20192;-68
2022/12/23 10:30:23;;;;;;;1.20;1.10;;;19.10;59.90;;;;;;4956665;28;20194;-68
2022/12/23 10:33:00;;;;;;;1.88;1.00;;;19.10;59.90;;;;;;4975161;28;20256;-69
2022/12/23 10:35:44;;;;;;;1.40;1.10;;;19.10;59.90;;;;;;4954113;29;20190;-68
2022/12/23 10:38:25;;;;;;;1.90;1.08;;;19.10;59.90;;;;;;4947321;29;20236;-69
2022/12/23 10:41:20;;;;;;;1.15;1.05;;;19.10;59.90;;;;;;4961319;28;20196;-69
2022/12/23 10:44:05;;;;;;;1.65;0.95;;;19.10;59.90;;;;;;4948203;29;20178;-68
2022/12/23 10:46:37;;;;;;;1.77;1.10;;;19.10;59.90;;;;;;4968274;28;20220;-68
2022/12/23 10:49:20;;;;;;;1.38;1.10;;;19.10;59.90;;;;;;4933906;29;20273;-68
2022/12/23 10:51:56;;;;;;;1.27;1.08;;;19.10;59.90;;;;;;4943259;28;20209;-68
2022/12/23 10:54:29;;;;;;;2.08;1.08;;;19.10;59.90;;;;;;4958650;28;20197;-68
2022/12/23 10:56:55;;;;;;;1.00;0.90;;;19.10;59.90;;;;;;4976250;28;20190;-68
2022/12/23 10:59:27;;;;;;;1.83;1.00;;;19.10;59.90;;;;;;4956154;29;20345;-68
2022/12/23 11:02:43;;;;;;;2.00;1.10;;;19.10;59.90;;;;;;4968485;28;20220;-68
2022/12/23 11:05:23;;;;;;;1.25;0.95;;;19.10;59.90;;;;;;4943756;28;20293;-68
2022/12/23 11:07:49;;;;;;;1.33;0.90;;;19.10;60.00;;;;;;4974448;28;20196;-68
2022/12/23 11:10:31;;;;;;;1.10;1.00;;;19.10;60.00;;;;;;4950436;28;20201;-68
2022/12/23 11:12:58;;;;;;;1.63;1.17;;;19.10;60.00;;;;;;4965870;28;20281;-69
2022/12/23 11:15:39;;;;;;;1.80;1.10;;;19.10;59.90;;;;;;4954348;28;20305;-68
2022/12/23 11:18:11;;;;;;;1.52;1.35;;;19.10;60.00;;;;;;4974023;28;20185;-69
2022/12/23 11:20:43;;;;;;;0.98;0.80;;;19.10;60.00;;;;;;4958533;28;20186;-68
2022/12/23 11:23:31;;;;;;;1.42;1.33;;;19.10;60.10;;;;;;4972045;28;20192;-68
2022/12/23 11:26:10;;;;;;;1.42;1.00;;;19.10;60.50;;;;;;4972880;28;20182;-68
2022/12/23 11:28:50;;;;;;;1.65;1.00;;;19.10;60.30;;;;;;4964866;28;20221;-68
2022/12/23 11:31:27;;;;;;;1.30;1.17;;;19.10;60.20;;;;;;4972822;28;20244;-69
2022/12/23 11:34:03;;;;;;;3.88;1.30;;;19.10;60.20;;;;;;4974201;28;20185;-69
2022/12/23 11:36:32;;;;;;;1.05;0.95;;;19.10;60.20;;;;;;4958129;28;20185;-69
2022/12/23 11:39:13;;;;;;;1.95;1.23;;;19.10;60.20;;;;;;4957963;28;20210;-68
2022/12/23 11:41:49;;;;;;;2.05;1.27;;;19.10;60.30;;;;;;4944583;29;20249;-68
2022/12/23 11:44:27;;;;;;;2.15;1.30;;;19.10;60.20;;;;;;4958384;28;20185;-68
2022/12/23 11:46:53;;;;;;;1.35;0.90;;;19.10;60.20;;;;;;4944731;28;20264;-68
2022/12/23 11:49:26;;;;;;;1.77;1.20;;;19.10;60.30;;;;;;4957190;28;20217;-68
2022/12/23 11:52:04;;;;;;;1.35;1.02;;;19.10;60.30;;;;;;4966873;28;20237;-69
2022/12/23 11:54:32;;;;;;;2.42;1.40;;;19.10;60.30;;;;;;4948091;29;20197;-68
2022/12/23 11:57:04;;;;;;;2.67;1.10;;;19.10;60.40;;;;;;4943842;28;20217;-69
2022/12/23 11:59:37;;;;;;;1.80;1.00;;;19.10;60.40;;;;;;4958379;28;20246;-68
2022/12/23 12:02:13;;;;;;;1.30;0.93;;;19.10;60.40;;;;;;4944486;28;20279;-68
2022/12/23 12:04:41;;;;;;;1.15;0.93;;;19.10;60.40;;;;;;4941628;28;20189;-68
2022/12/23 12:07:13;;;;;;;2.03;1.17;;;19.10;60.40;;;;;;4959013;28;20190;-68
2022/12/23 12:09:42;;;;;;;1.33;1.08;;;19.10;60.40;;;;;;4970062;28;20233;-68
2022/12/23 12:12:19;;;;;;;1.42;1.17;;;19.10;60.40;;;;;;4944652;29;20237;-68
2022/12/23 12:14:54;;;;;;;2.05;1.20;;;19.10;60.50;;;;;;4946367;28;20198;-69
2022/12/23 12:17:44;;;;;;;2.95;1.20;;;19.10;60.50;;;;;;4968539;28;20193;-69
2022/12/23 12:20:40;;;;;;;2.40;1.10;;;19.10;60.50;;;;;;4966202;28;20293;-68
2022/12/23 12:23:21;;;;;;;1.73;0.98;;;19.10;60.60;;;;;;4953537;28;20226;-67
2022/12/23 12:26:05;;;;;;;1.45;1.33;;;19.10;60.60;;;;;;4935436;29;20227;-67
2022/12/23 12:28:50;;;;;;;2.00;1.40;;;19.10;60.50;;;;;;4963934;28;20301;-68
2022/12/23 12:31:35;;;;;;;3.45;1.45;;;19.10;60.50;;;;;;4962878;28;20246;-68
2022/12/23 12:34:34;;;;;;;2.17;1.10;;;19.10;60.60;;;;;;4964337;28;20619;-68
2022/12/23 12:37:43;;;;;;;1.45;1.00;;;19.10;60.60;;;;;;4961996;28;20204;-67
2022/12/23 12:40:41;;;;;;;1.77;1.08;;;19.10;60.60;;;;;;4940821;29;20206;-67
2022/12/23 12:43:25;;;;;;;2.40;1.10;;;19.10;60.50;;;;;;4932849;29;20221;-68
2022/12/23 12:46:15;;;;;;;3.40;1.45;;;19.10;60.60;;;;;;4956461;28;20189;-67
2022/12/23 12:49:13;;;;;;;1.60;1.20;;;19.10;60.60;;;;;;4937122;29;20325;-68
2022/12/23 12:51:45;;;;;;;1.38;1.27;;;19.10;60.60;;;;;;4956279;28;20363;-68
2022/12/23 12:54:30;;;;;;;1.50;1.23;;;19.10;60.60;;;;;;4953322;29;20190;-68
2022/12/23 12:56:58;;;;;;;1.80;1.20;;;19.10;60.60;;;;;;4938509;29;20174;-67
2022/12/23 12:59:36;;;;;;;1.40;1.30;;;19.10;60.60;;;;;;4953013;28;20238;-68
2022/12/23 13:02:34;;;;;;;2.05;1.40;;;19.10;60.60;;;;;;4962957;28;20532;-67
2022/12/23 13:05:45;;;;;;;1.77;1.05;;;19.10;60.70;;;;;;4949304;29;20187;-68
2022/12/23 13:08:29;;;;;;;1.73;1.38;;;19.10;60.70;;;;;;4949932;29;20248;-68
2022/12/23 13:11:17;;;;;;;1.98;1.35;;;19.10;60.70;;;;;;4971296;28;20213;-67
2022/12/23 13:14:16;;;;;;;2.28;1.27;;;19.10;60.70;;;;;;4946380;29;20240;-68
2022/12/23 13:16:56;;;;;;;1.58;1.20;;;19.10;60.70;;;;;;4934432;29;20206;-68
2022/12/23 13:19:28;;;;;;;2.00;1.40;;;19.10;60.80;;;;;;4936851;29;20282;-68
2022/12/23 13:22:10;;;;;;;3.20;1.23;;;19.10;60.80;;;;;;4965680;28;20224;-68
2022/12/23 13:24:54;;;;;;;1.35;1.05;;;19.10;60.70;;;;;;4970247;28;20200;-68
2022/12/23 13:27:34;;;;;;;1.48;1.13;;;19.10;60.70;;;;;;4962959;28;20204;-68
2022/12/23 13:30:16;;;;;;;1.30;1.00;;;19.10;60.80;;;;;;4976526;28;20232;-68
2022/12/23 13:33:03;;;;;;;2.33;1.20;;;19.10;60.90;;;;;;4952364;28;20675;-68
2022/12/23 13:36:33;;;;;;;1.75;1.23;;;19.10;60.70;;;;;;4951978;28;20193;-67
2022/12/23 13:39:10;;;;;;;2.05;1.38;;;19.10;60.80;;;;;;4956412;29;20206;-69
2022/12/23 13:41:45;;;;;;;1.48;1.00;;;19.10;60.90;;;;;;4960302;28;20217;-69
2022/12/23 13:44:17;;;;;;;1.63;1.10;;;19.10;60.80;;;;;;4959900;28;20199;-69
2022/12/23 13:47:03;;;;;;;2.47;1.00;;;19.10;60.90;;;;;;4945389;29;20218;-69
2022/12/23 13:49:44;;;;;;;1.40;1.00;;;19.10;60.90;;;;;;4956039;28;20701;-69
2022/12/23 13:53:04;;;;;;;1.73;1.00;;;19.10;60.80;;;;;;4975829;28;20562;-69
2022/12/23 13:55:48;;;;;;;2.63;1.27;;;19.10;60.90;;;;;;4959827;28;20190;-69
2022/12/23 13:58:21;;;;;;;2.10;1.20;;;19.10;60.90;;;;;;4974822;28;20245;-69